createdAt,value
2019-05-21T00:01:03.207Z,92.93
2019-05-21T00:03:34.295Z,93.41
2019-05-21T00:06:05.670Z,93.94
2019-05-21T00:08:36.724Z,94.66
2019-05-21T00:11:08.275Z,94.51
2019-05-21T00:13:39.340Z,94.15
2019-05-21T00:16:10.388Z,94.34
2019-05-21T00:18:41.440Z,94.43
2019-05-21T00:21:12.630Z,94.33
2019-05-21T00:23:43.731Z,95.02
2019-05-21T00:26:14.865Z,94.84
2019-05-21T00:29:40.485Z,93.89
2019-05-21T00:33:06.254Z,94.61
2019-05-21T00:36:32.788Z,95.08
2019-05-21T00:39:58.031Z,95.11
2019-05-21T00:42:33.816Z,95.07
2019-05-21T00:45:07.971Z,95.46
2019-05-21T00:47:40.461Z,95.22
2019-05-21T00:50:12.935Z,94.32
2019-05-21T00:52:44.083Z,94.96
2019-05-21T00:55:15.299Z,94.82
2019-05-21T00:57:46.464Z,94.82
2019-05-21T01:00:17.795Z,94.96
2019-05-21T01:02:48.953Z,95.04
2019-05-21T01:05:20.038Z,94.90
2019-05-21T01:07:51.180Z,94.75
2019-05-21T01:10:22.398Z,94.78
2019-05-21T01:12:53.460Z,94.58
2019-05-21T01:15:24.704Z,94.37
2019-05-21T01:17:55.822Z,94.25
2019-05-21T01:20:27.193Z,94.77
2019-05-21T01:22:58.357Z,94.14
2019-05-21T01:25:29.487Z,93.09
2019-05-21T01:28:00.636Z,93.91
2019-05-21T01:30:32.835Z,92.94
2019-05-21T01:33:03.993Z,93.45
2019-05-21T01:35:35.081Z,93.27
2019-05-21T01:38:07.371Z,92.88
2019-05-21T01:40:38.474Z,92.67
2019-05-21T01:43:09.730Z,93.90
2019-05-21T01:45:41.128Z,94.23
2019-05-21T01:48:12.422Z,94.32
2019-05-21T01:50:43.571Z,94.21
2019-05-21T01:53:14.751Z,94.39
2019-05-21T01:55:45.952Z,94.77
2019-05-21T01:58:17.284Z,95.00
2019-05-21T02:00:48.417Z,93.96
2019-05-21T02:03:19.694Z,94.54
2019-05-21T02:05:52.069Z,94.79
2019-05-21T02:08:23.209Z,93.45
2019-05-21T02:10:54.929Z,93.74
2019-05-21T02:13:26.046Z,94.08
2019-05-21T02:15:57.192Z,94.06
2019-05-21T02:18:28.382Z,94.46
2019-05-21T02:20:59.733Z,94.64
2019-05-21T02:23:31.001Z,93.59
2019-05-21T02:26:02.043Z,93.91
2019-05-21T02:28:34.264Z,93.28
2019-05-21T02:31:05.746Z,94.32
2019-05-21T02:33:36.860Z,94.16
2019-05-21T02:36:08.164Z,93.35
2019-05-21T02:38:39.267Z,93.30
2019-05-21T02:41:10.386Z,93.96
2019-05-21T02:43:41.467Z,93.86
2019-05-21T02:46:12.669Z,93.76
2019-05-21T02:48:43.868Z,93.36
2019-05-21T02:51:15.062Z,93.88
2019-05-21T02:53:46.192Z,93.22
2019-05-21T02:56:17.384Z,94.00
2019-05-21T02:58:48.403Z,93.66
2019-05-21T03:01:35.995Z,93.29
2019-05-21T03:04:07.369Z,93.68
2019-05-21T03:06:38.908Z,92.91
2019-05-21T03:09:10.079Z,92.94
2019-05-21T03:11:41.373Z,93.07
2019-05-21T03:14:12.602Z,93.29
2019-05-21T03:16:43.805Z,92.37
2019-05-21T03:19:16.641Z,92.66
2019-05-21T03:21:48.035Z,91.85
2019-05-21T03:24:19.842Z,92.65
2019-05-21T03:26:50.877Z,93.26
2019-05-21T03:29:21.980Z,92.87
2019-05-21T03:31:53.575Z,93.52
2019-05-21T03:34:24.606Z,93.27
2019-05-21T03:36:55.729Z,93.10
2019-05-21T03:39:26.897Z,92.67
2019-05-21T03:41:58.094Z,93.32
2019-05-21T03:44:29.279Z,93.01
2019-05-21T03:47:00.370Z,93.00
2019-05-21T03:49:31.587Z,93.07
2019-05-21T03:52:02.751Z,93.55
2019-05-21T03:54:33.922Z,93.63
2019-05-21T03:57:05.046Z,93.57
2019-05-21T03:59:36.202Z,93.23
2019-05-21T04:02:07.372Z,93.08
2019-05-21T04:04:38.653Z,92.45
2019-05-21T04:07:09.798Z,93.19
2019-05-21T04:09:41.211Z,92.31
2019-05-21T04:12:12.316Z,92.32
2019-05-21T04:14:47.622Z,93.25
2019-05-21T04:17:36.271Z,92.77
2019-05-21T04:20:07.829Z,93.42
2019-05-21T04:22:52.636Z,93.08
2019-05-21T04:25:24.812Z,93.50
2019-05-21T04:27:55.930Z,92.95
2019-05-21T04:30:27.304Z,92.86
2019-05-21T04:32:58.489Z,92.34
2019-05-21T04:35:29.721Z,92.73
2019-05-21T04:38:00.865Z,92.72
2019-05-21T04:40:32.229Z,92.40
2019-05-21T04:43:03.369Z,92.87
2019-05-21T04:45:34.488Z,92.73
2019-05-21T04:48:05.703Z,93.05
2019-05-21T04:50:36.813Z,92.38
2019-05-21T04:53:08.029Z,92.37
2019-05-21T04:55:39.144Z,92.60
2019-05-21T04:58:10.311Z,92.76
2019-05-21T05:00:41.750Z,91.68
2019-05-21T05:03:13.223Z,92.97
2019-05-21T05:05:44.509Z,92.73
2019-05-21T05:08:15.729Z,92.49
2019-05-21T05:10:49.298Z,92.79
2019-05-21T05:13:19.873Z,92.44
2019-05-21T05:15:51.010Z,91.86
2019-05-21T05:18:22.091Z,91.94
2019-05-21T05:20:53.280Z,92.43
2019-05-21T05:23:24.453Z,92.63
2019-05-21T05:25:55.648Z,92.99
2019-05-21T05:28:26.709Z,92.47
2019-05-21T05:30:57.850Z,92.76
2019-05-21T05:33:28.963Z,92.40
2019-05-21T05:36:00.124Z,92.78
2019-05-21T05:38:31.224Z,92.37
2019-05-21T05:41:02.496Z,93.16
2019-05-21T05:43:33.884Z,92.64
2019-05-21T05:46:05.344Z,92.54
2019-05-21T05:48:41.892Z,92.88
2019-05-21T05:51:13.265Z,92.60
2019-05-21T05:53:59.472Z,91.69
2019-05-21T05:56:31.150Z,91.59
2019-05-21T05:59:02.337Z,92.38
2019-05-21T06:01:34.730Z,92.41
2019-05-21T06:04:05.915Z,91.45
2019-05-21T06:06:38.330Z,91.70
2019-05-21T06:09:09.620Z,91.94
2019-05-21T06:11:40.793Z,92.23
2019-05-21T06:14:11.884Z,92.67
2019-05-21T06:16:42.998Z,92.00
2019-05-21T06:19:14.434Z,91.38
2019-05-21T06:21:45.515Z,91.47
2019-05-21T06:24:16.699Z,91.28
2019-05-21T06:26:47.907Z,91.12
2019-05-21T06:29:19.145Z,91.08
2019-05-21T06:31:50.803Z,90.66
2019-05-21T06:34:21.973Z,90.90
2019-05-21T06:36:53.192Z,91.40
2019-05-21T06:39:24.403Z,91.34
2019-05-21T06:41:55.611Z,91.82
2019-05-21T06:44:26.873Z,91.31
2019-05-21T06:46:59.259Z,91.47
2019-05-21T06:49:30.362Z,91.20
2019-05-21T06:52:01.638Z,91.93
2019-05-21T06:54:32.751Z,91.01
2019-05-21T06:57:04.075Z,92.52
2019-05-21T06:59:35.175Z,90.58
2019-05-21T07:02:06.304Z,90.90
2019-05-21T07:04:37.337Z,90.87
2019-05-21T07:07:08.445Z,91.99
2019-05-21T07:09:39.601Z,91.35
2019-05-21T07:12:10.818Z,90.76
2019-05-21T07:14:42.015Z,92.00
2019-05-21T07:17:13.259Z,90.68
2019-05-21T07:19:44.506Z,89.99
2019-05-21T07:22:15.600Z,90.96
2019-05-21T07:24:46.672Z,90.74
2019-05-21T07:27:17.758Z,89.93
2019-05-21T07:29:48.986Z,91.04
2019-05-21T07:32:20.192Z,92.61
2019-05-21T07:34:51.323Z,92.19
2019-05-21T07:37:22.472Z,90.69
2019-05-21T07:39:53.714Z,91.24
2019-05-21T07:42:24.911Z,90.98
2019-05-21T07:44:56.103Z,90.34
2019-05-21T07:47:27.250Z,90.35
2019-05-21T07:49:58.435Z,90.97
2019-05-21T07:52:30.917Z,91.47
2019-05-21T07:55:02.116Z,91.48
2019-05-21T07:57:33.519Z,91.78
2019-05-21T08:00:05.834Z,92.39
2019-05-21T08:02:37.190Z,91.18
2019-05-21T08:05:08.531Z,91.82
2019-05-21T08:07:39.780Z,91.52
2019-05-21T08:10:11.637Z,90.53
2019-05-21T08:12:42.774Z,90.23
2019-05-21T08:15:14.492Z,91.30
2019-05-21T08:17:45.628Z,90.72
2019-05-21T08:20:17.621Z,90.84
2019-05-21T08:22:48.855Z,90.08
2019-05-21T08:25:19.985Z,89.59
2019-05-21T08:27:51.334Z,90.15
2019-05-21T08:30:22.612Z,90.34
2019-05-21T08:32:54.691Z,90.83
2019-05-21T08:35:25.981Z,90.21
2019-05-21T08:37:57.107Z,90.43
2019-05-21T08:40:28.193Z,90.16
2019-05-21T08:42:59.376Z,90.00
2019-05-21T08:45:30.714Z,91.71
2019-05-21T08:48:01.915Z,91.23
2019-05-21T08:50:33.190Z,91.15
2019-05-21T08:53:04.425Z,91.76
2019-05-21T08:55:35.634Z,91.12
2019-05-21T08:58:07.872Z,90.71
2019-05-21T09:00:40.298Z,90.75
2019-05-21T09:03:11.592Z,89.40
2019-05-21T09:05:42.775Z,89.27
2019-05-21T09:08:14.023Z,89.77
2019-05-21T09:10:45.242Z,89.22
2019-05-21T09:13:18.018Z,89.50
2019-05-21T09:15:49.426Z,89.33
2019-05-21T09:18:20.658Z,89.64
2019-05-21T09:20:51.957Z,91.18
2019-05-21T09:23:23.120Z,88.74
2019-05-21T09:25:54.315Z,90.75
2019-05-21T09:28:25.791Z,90.25
2019-05-21T09:30:56.955Z,90.70
2019-05-21T09:33:28.142Z,90.62
2019-05-21T09:35:59.256Z,90.24
2019-05-21T09:38:30.404Z,90.08
2019-05-21T09:41:01.659Z,89.87
2019-05-21T09:43:33.082Z,88.29
2019-05-21T09:46:04.285Z,89.52
2019-05-21T09:48:35.431Z,90.29
2019-05-21T09:51:06.738Z,89.86
2019-05-21T09:53:38.005Z,89.20
2019-05-21T09:56:26.921Z,89.80
2019-05-21T09:58:59.793Z,89.30
2019-05-21T10:01:38.038Z,89.99
2019-05-21T10:04:09.366Z,89.82
2019-05-21T10:06:40.481Z,88.45
2019-05-21T10:09:16.374Z,89.01
2019-05-21T10:11:47.520Z,89.98
2019-05-21T10:14:18.781Z,88.48
2019-05-21T10:16:50.058Z,88.97
2019-05-21T10:19:21.321Z,89.77
2019-05-21T10:21:52.493Z,88.79
2019-05-21T10:24:23.694Z,88.48
2019-05-21T10:26:54.882Z,88.61
2019-05-21T10:29:26.079Z,88.08
2019-05-21T10:31:57.311Z,89.05
2019-05-21T10:34:28.501Z,89.23
2019-05-21T10:36:59.612Z,88.45
2019-05-21T10:39:31.067Z,88.11
2019-05-21T10:42:02.300Z,86.91
2019-05-21T10:44:33.429Z,87.83
2019-05-21T10:47:04.693Z,87.38
2019-05-21T10:49:35.809Z,87.68
2019-05-21T10:52:07.112Z,89.46
2019-05-21T10:54:38.512Z,88.80
2019-05-21T10:57:10.749Z,88.59
2019-05-21T10:59:42.016Z,88.71
2019-05-21T11:02:23.209Z,87.39
2019-05-21T11:05:04.218Z,88.81
2019-05-21T11:07:35.550Z,88.99
2019-05-21T11:10:08.261Z,87.75
2019-05-21T11:12:39.701Z,88.42
2019-05-21T11:15:11.331Z,87.54
2019-05-21T11:17:53.779Z,87.89
2019-05-21T11:20:16.516Z,87.37
2019-05-21T11:22:47.688Z,87.08
2019-05-21T11:25:19.246Z,88.01
2019-05-21T11:27:50.510Z,86.50
2019-05-21T11:30:21.738Z,87.12
2019-05-21T11:32:52.956Z,87.42
2019-05-21T11:35:24.219Z,86.06
2019-05-21T11:37:55.412Z,88.75
2019-05-21T11:40:27.420Z,86.88
2019-05-21T11:42:58.622Z,86.89
2019-05-21T11:45:32.776Z,86.84
2019-05-21T11:48:02.814Z,88.21
2019-05-21T11:50:33.949Z,88.22
2019-05-21T11:53:05.082Z,88.83
2019-05-21T11:55:36.206Z,87.25
2019-05-21T11:58:07.341Z,87.22
2019-05-21T12:00:38.497Z,85.88
2019-05-21T12:03:09.916Z,87.94
2019-05-21T12:05:41.212Z,86.67
2019-05-21T12:08:12.408Z,86.18
2019-05-21T12:10:43.735Z,85.77
2019-05-21T12:13:14.913Z,85.86
2019-05-21T12:15:46.017Z,86.41
2019-05-21T12:18:17.200Z,86.69
2019-05-21T12:20:48.434Z,87.42
2019-05-21T12:23:19.450Z,87.26
2019-05-21T12:25:50.688Z,86.86
2019-05-21T12:28:21.696Z,86.64
2019-05-21T12:30:52.839Z,86.53
2019-05-21T12:33:24.116Z,87.08
2019-05-21T12:35:55.248Z,87.66
2019-05-21T12:38:26.300Z,86.55
2019-05-21T12:40:57.551Z,86.02
2019-05-21T12:43:28.673Z,85.96
2019-05-21T12:45:59.887Z,86.33
2019-05-21T12:48:31.023Z,86.58
2019-05-21T12:51:02.219Z,85.84
2019-05-21T12:53:33.248Z,87.33
2019-05-21T12:56:04.568Z,86.04
2019-05-21T12:58:35.758Z,87.77
2019-05-21T13:01:06.946Z,86.25
2019-05-21T13:03:38.063Z,86.49
2019-05-21T13:06:09.586Z,85.67
2019-05-21T13:08:40.615Z,87.36
2019-05-21T13:11:12.947Z,87.81
2019-05-21T13:13:44.170Z,87.93
2019-05-21T13:16:15.441Z,85.99
2019-05-21T13:18:46.608Z,87.70
2019-05-21T13:21:17.823Z,88.40
2019-05-21T13:23:50.138Z,88.84
2019-05-21T13:26:21.633Z,88.57
2019-05-21T13:28:52.841Z,87.58
2019-05-21T13:31:24.039Z,87.75
2019-05-21T13:33:55.221Z,87.42
2019-05-21T13:36:26.419Z,88.32
2019-05-21T13:38:57.600Z,88.65
2019-05-21T13:41:28.884Z,89.49
2019-05-21T13:44:00.034Z,88.66
2019-05-21T13:46:31.231Z,89.19
2019-05-21T13:49:02.437Z,89.40
2019-05-21T13:51:33.682Z,88.30
2019-05-21T13:54:04.858Z,89.78
2019-05-21T13:56:35.976Z,89.51
2019-05-21T13:59:07.252Z,89.18
2019-05-21T14:01:41.349Z,88.71
2019-05-21T14:04:11.588Z,88.77
2019-05-21T14:06:42.772Z,89.46
2019-05-21T14:09:13.952Z,89.56
2019-05-21T14:11:45.209Z,89.57
2019-05-21T14:14:16.496Z,89.14
2019-05-21T14:16:47.523Z,87.93
2019-05-21T14:19:18.701Z,89.96
2019-05-21T14:21:49.957Z,90.46
2019-05-21T14:24:21.113Z,89.54
2019-05-21T14:26:52.274Z,90.82
2019-05-21T14:29:23.428Z,90.45
2019-05-21T14:31:54.587Z,90.36
2019-05-21T14:34:25.733Z,90.58
2019-05-21T14:36:56.892Z,89.66
2019-05-21T14:39:28.135Z,89.39
2019-05-21T14:41:59.349Z,90.97
2019-05-21T14:44:30.412Z,89.70
2019-05-21T14:47:01.757Z,90.95
2019-05-21T14:49:32.943Z,90.56
2019-05-21T14:52:05.844Z,90.40
2019-05-21T14:54:36.942Z,90.53
2019-05-21T14:57:12.536Z,90.66
2019-05-21T14:59:43.758Z,90.76
2019-05-21T15:02:14.979Z,90.59
2019-05-21T15:04:46.354Z,90.47
2019-05-21T15:07:17.744Z,90.07
2019-05-21T15:09:53.197Z,90.25
2019-05-21T15:12:21.869Z,90.15
2019-05-21T15:14:53.406Z,89.85
2019-05-21T15:17:24.917Z,91.37
2019-05-21T15:19:57.696Z,91.23
2019-05-21T15:22:28.745Z,91.02
2019-05-21T15:24:59.849Z,89.86
2019-05-21T15:27:31.010Z,89.93
2019-05-21T15:30:02.212Z,90.95
2019-05-21T15:32:33.787Z,91.33
2019-05-21T15:35:05.457Z,91.15
2019-05-21T15:37:36.657Z,91.02
2019-05-21T15:40:08.954Z,90.55
2019-05-21T15:42:40.228Z,89.98
2019-05-21T15:45:12.565Z,90.28
2019-05-21T15:47:43.776Z,90.81
2019-05-21T15:50:16.033Z,91.04
2019-05-21T15:52:47.228Z,90.53
2019-05-21T15:55:18.600Z,90.88
2019-05-21T15:57:49.871Z,91.17
2019-05-21T16:00:23.576Z,91.42
2019-05-21T16:02:54.689Z,91.80
2019-05-21T16:05:25.978Z,91.86
2019-05-21T16:07:57.088Z,91.54
2019-05-21T16:10:28.366Z,91.28
2019-05-21T16:12:59.578Z,90.66
2019-05-21T16:15:30.700Z,90.65
2019-05-21T16:18:02.024Z,91.10
2019-05-21T16:20:33.229Z,91.52
2019-05-21T16:23:04.469Z,91.50
2019-05-21T16:25:36.981Z,91.62
2019-05-21T16:28:08.445Z,91.31
2019-05-21T16:30:39.604Z,91.15
2019-05-21T16:33:10.864Z,91.22
2019-05-21T16:35:41.960Z,92.08
2019-05-21T16:38:13.303Z,91.59
2019-05-21T16:40:44.569Z,91.61
2019-05-21T16:43:15.872Z,91.21
2019-05-21T16:45:47.177Z,91.94
2019-05-21T16:48:18.512Z,92.48
2019-05-21T16:50:49.746Z,91.62
2019-05-21T16:53:21.294Z,91.44
2019-05-21T16:55:52.426Z,90.62
2019-05-21T16:58:23.585Z,91.60
2019-05-21T17:00:54.911Z,90.86
2019-05-21T17:03:26.073Z,91.55
2019-05-21T17:05:57.157Z,91.49
2019-05-21T17:08:29.781Z,90.77
2019-05-21T17:11:00.928Z,91.69
2019-05-21T17:13:32.160Z,92.43
2019-05-21T17:16:03.372Z,92.52
2019-05-21T17:18:34.655Z,92.04
2019-05-21T17:21:05.832Z,91.96
2019-05-21T17:23:37.038Z,91.80
2019-05-21T17:26:08.414Z,91.02
2019-05-21T17:28:39.747Z,91.54
2019-05-21T17:31:11.002Z,91.72
2019-05-21T17:33:42.163Z,92.14
2019-05-21T17:36:13.368Z,91.87
2019-05-21T17:38:44.551Z,92.78
2019-05-21T17:41:15.810Z,92.18
2019-05-21T17:43:46.991Z,91.79
2019-05-21T17:46:18.141Z,91.40
2019-05-21T17:48:49.376Z,91.47
2019-05-21T17:51:20.398Z,91.19
2019-05-21T17:53:51.845Z,91.58
2019-05-21T17:56:22.893Z,91.27
2019-05-21T17:58:54.114Z,91.07
2019-05-21T18:01:26.369Z,92.38
2019-05-21T18:03:57.488Z,91.71
2019-05-21T18:06:28.998Z,92.20
2019-05-21T18:09:00.995Z,91.78
2019-05-21T18:11:34.363Z,92.68
2019-05-21T18:14:06.163Z,92.83
2019-05-21T18:16:37.512Z,92.51
2019-05-21T18:19:09.129Z,92.00
2019-05-21T18:21:40.812Z,91.90
2019-05-21T18:24:12.168Z,92.12
2019-05-21T18:26:43.283Z,92.55
2019-05-21T18:29:14.628Z,92.89
2019-05-21T18:31:45.925Z,93.38
2019-05-21T18:34:17.485Z,92.80
2019-05-21T18:36:48.625Z,92.45
2019-05-21T18:39:21.183Z,92.27
2019-05-21T18:41:52.650Z,91.56
2019-05-21T18:44:23.864Z,91.62
2019-05-21T18:46:56.273Z,91.73
2019-05-21T18:49:27.916Z,92.39
2019-05-21T18:51:59.148Z,92.12
2019-05-21T18:54:30.487Z,92.18
2019-05-21T18:57:01.589Z,92.10
2019-05-21T18:59:33.249Z,91.63
2019-05-21T19:02:05.919Z,91.75
2019-05-21T19:04:37.031Z,91.56
2019-05-21T19:07:10.808Z,91.21
2019-05-21T19:09:41.377Z,91.48
2019-05-21T19:12:12.668Z,91.57
2019-05-21T19:14:44.939Z,92.31
2019-05-21T19:17:16.546Z,91.46
2019-05-21T19:19:47.769Z,92.62
2019-05-21T19:22:18.951Z,92.71
2019-05-21T19:24:50.213Z,92.49
2019-05-21T19:27:21.373Z,92.57
2019-05-21T19:29:52.568Z,91.92
2019-05-21T19:32:23.886Z,92.42
2019-05-21T19:34:55.411Z,92.88
2019-05-21T19:37:26.549Z,92.82
2019-05-21T19:39:57.700Z,93.00
2019-05-21T19:42:28.815Z,91.85
2019-05-21T19:44:59.881Z,92.34
2019-05-21T19:47:31.091Z,91.67
2019-05-21T19:50:02.285Z,91.81
2019-05-21T19:52:33.603Z,91.75
2019-05-21T19:55:04.994Z,91.52
2019-05-21T19:57:36.989Z,91.42
2019-05-21T20:00:08.737Z,91.23
2019-05-21T20:02:40.953Z,91.01
2019-05-21T20:05:12.852Z,91.52
2019-05-21T20:07:44.542Z,91.39
2019-05-21T20:10:17.242Z,91.39
2019-05-21T20:12:48.544Z,92.19
2019-05-21T20:15:19.807Z,91.46
2019-05-21T20:18:05.133Z,90.94
2019-05-21T20:20:27.705Z,91.86
2019-05-21T20:22:59.253Z,91.86
2019-05-21T20:25:31.248Z,92.50
2019-05-21T20:28:02.974Z,92.46
2019-05-21T20:30:35.222Z,91.35
2019-05-21T20:33:07.595Z,91.18
2019-05-21T20:35:39.310Z,91.65
2019-05-21T20:38:12.248Z,92.25
2019-05-21T20:40:43.398Z,91.81
2019-05-21T20:43:14.960Z,91.16
2019-05-21T20:45:48.641Z,91.45
2019-05-21T20:48:21.683Z,91.51
2019-05-21T20:50:54.087Z,91.46
2019-05-21T20:53:25.909Z,91.36
2019-05-21T20:55:57.904Z,92.00
2019-05-21T20:58:29.383Z,92.92
2019-05-21T21:01:02.323Z,92.65
2019-05-21T21:03:33.783Z,92.00
2019-05-21T21:06:06.431Z,92.12
2019-05-21T21:08:37.699Z,92.67
2019-05-21T21:11:11.089Z,92.33
2019-05-21T21:13:44.703Z,91.92
2019-05-21T21:16:16.501Z,92.10
2019-05-21T21:18:48.092Z,91.98
2019-05-21T21:21:19.552Z,91.80
2019-05-21T21:23:52.318Z,92.40
2019-05-21T21:26:24.318Z,91.65
2019-05-21T21:28:55.562Z,92.40
2019-05-21T21:31:26.807Z,92.46
2019-05-21T21:33:58.754Z,91.59
2019-05-21T21:36:30.682Z,92.18
2019-05-21T21:39:01.839Z,92.05
2019-05-21T21:41:35.078Z,92.53
2019-05-21T21:44:06.893Z,92.45
2019-05-21T21:46:39.188Z,92.05
2019-05-21T21:49:13.226Z,92.73
2019-05-21T21:51:45.157Z,92.39
2019-05-21T21:54:16.689Z,91.83
2019-05-21T21:56:48.160Z,91.60
2019-05-21T21:59:19.344Z,91.23
2019-05-21T22:01:59.795Z,91.11
2019-05-21T22:04:37.009Z,92.20
2019-05-21T22:07:08.222Z,91.92
2019-05-21T22:09:40.190Z,91.73
2019-05-21T22:12:16.876Z,91.07
2019-05-21T22:14:55.530Z,91.50
2019-05-21T22:17:27.113Z,91.64
2019-05-21T22:19:58.577Z,92.58
2019-05-21T22:22:29.967Z,92.16
2019-05-21T22:25:02.113Z,91.85
2019-05-21T22:27:34.958Z,92.22
2019-05-21T22:30:07.970Z,91.49
2019-05-21T22:32:39.118Z,91.87
2019-05-21T22:35:10.403Z,91.65
2019-05-21T22:37:41.534Z,91.58
2019-05-21T22:40:13.152Z,91.63
2019-05-21T22:42:44.390Z,91.92
2019-05-21T22:45:15.641Z,92.21
2019-05-21T22:47:46.827Z,93.30
2019-05-21T22:50:18.685Z,92.50
2019-05-21T22:52:49.887Z,92.14
2019-05-21T22:55:21.186Z,92.55
2019-05-21T22:57:52.307Z,92.49
2019-05-21T23:00:23.696Z,92.83
2019-05-21T23:02:55.468Z,92.81
2019-05-21T23:05:26.805Z,93.36
2019-05-21T23:07:58.800Z,92.70
2019-05-21T23:10:30.210Z,91.52
2019-05-21T23:13:01.794Z,92.58
2019-05-21T23:15:33.234Z,92.30
2019-05-21T23:18:12.166Z,92.12
2019-05-21T23:21:03.379Z,92.20
2019-05-21T23:23:37.479Z,92.65
2019-05-21T23:26:10.029Z,93.01
2019-05-21T23:28:42.301Z,92.98
2019-05-21T23:31:15.105Z,93.23
2019-05-21T23:33:48.375Z,92.23
2019-05-21T23:36:19.712Z,92.05
2019-05-21T23:38:51.455Z,91.85
2019-05-21T23:41:24.253Z,92.54
2019-05-21T23:43:55.523Z,91.57
2019-05-21T23:46:26.708Z,91.90
2019-05-21T23:48:58.410Z,91.81
2019-05-21T23:51:29.661Z,92.20
2019-05-21T23:54:01.039Z,92.09
2019-05-21T23:56:32.392Z,92.01
2019-05-21T23:59:03.612Z,91.67
